sensor_id;sensor_type;location;lat;lon;timestamp;pressure;altitude;pressure_sealevel;temperature;humidity
46267;BME280;31998;48.798;15.066;2023-01-30T00:01:39;96095.22;;;-11.93;100.00
46267;BME280;31998;48.798;15.066;2023-01-30T00:04:05;96095.53;;;-12.06;100.00
46267;BME280;31998;48.798;15.066;2023-01-30T00:06:30;96110.97;;;-12.14;100.00
46267;BME280;31998;48.798;15.066;2023-01-30T00:08:55;96113.44;;;-12.12;100.00
46267;BME280;31998;48.798;15.066;2023-01-30T00:11:21;96105.63;;;-12.02;100.00
46267;BME280;31998;48.798;15.066;2023-01-30T00:13:48;96103.69;;;-11.91;100.00
46267;BME280;31998;48.798;15.066;2023-01-30T00:16:15;96100.13;;;-11.90;100.00
46267;BME280;31998;48.798;15.066;2023-01-30T00:18:41;96090.44;;;-11.97;100.00
46267;BME280;31998;48.798;15.066;2023-01-30T00:21:09;96082.91;;;-11.91;100.00
46267;BME280;31998;48.798;15.066;2023-01-30T00:23:36;96077.47;;;-11.97;100.00
46267;BME280;31998;48.798;15.066;2023-01-30T00:26:03;96076.16;;;-12.11;100.00
46267;BME280;31998;48.798;15.066;2023-01-30T00:28:28;96079.19;;;-12.25;100.00
46267;BME280;31998;48.798;15.066;2023-01-30T00:30:54;96082.59;;;-12.35;100.00
46267;BME280;31998;48.798;15.066;2023-01-30T00:33:21;96072.09;;;-12.23;100.00
46267;BME280;31998;48.798;15.066;2023-01-30T00:35:49;96071.53;;;-12.17;100.00
46267;BME280;31998;48.798;15.066;2023-01-30T00:38:16;96067.72;;;-12.23;100.00
46267;BME280;31998;48.798;15.066;2023-01-30T00:40:42;96049.00;;;-12.26;100.00
46267;BME280;31998;48.798;15.066;2023-01-30T00:43:13;96043.81;;;-12.17;100.00
46267;BME280;31998;48.798;15.066;2023-01-30T00:45:58;96043.66;;;-12.06;100.00
46267;BME280;31998;48.798;15.066;2023-01-30T00:48:42;96033.34;;;-12.25;100.00
46267;BME280;31998;48.798;15.066;2023-01-30T00:51:08;96034.72;;;-12.30;100.00
46267;BME280;31998;48.798;15.066;2023-01-30T00:53:33;96031.50;;;-12.15;100.00
46267;BME280;31998;48.798;15.066;2023-01-30T00:55:59;96019.41;;;-12.34;100.00
46267;BME280;31998;48.798;15.066;2023-01-30T00:58:24;96031.56;;;-12.34;100.00
46267;BME280;31998;48.798;15.066;2023-01-30T01:00:50;96031.47;;;-12.42;100.00
46267;BME280;31998;48.798;15.066;2023-01-30T01:03:16;96037.19;;;-12.39;100.00
46267;BME280;31998;48.798;15.066;2023-01-30T01:05:42;96026.78;;;-12.29;100.00
46267;BME280;31998;48.798;15.066;2023-01-30T01:08:09;96025.25;;;-12.12;100.00
46267;BME280;31998;48.798;15.066;2023-01-30T01:10:34;96019.09;;;-12.11;100.00
46267;BME280;31998;48.798;15.066;2023-01-30T01:13:00;96013.78;;;-12.19;100.00
46267;BME280;31998;48.798;15.066;2023-01-30T01:15:25;96008.84;;;-12.13;100.00
46267;BME280;31998;48.798;15.066;2023-01-30T01:17:52;96022.72;;;-12.41;100.00
46267;BME280;31998;48.798;15.066;2023-01-30T01:20:18;96011.69;;;-12.53;100.00
46267;BME280;31998;48.798;15.066;2023-01-30T01:22:44;95995.31;;;-12.53;100.00
46267;BME280;31998;48.798;15.066;2023-01-30T01:25:10;95986.78;;;-12.26;100.00
46267;BME280;31998;48.798;15.066;2023-01-30T01:27:37;95973.75;;;-12.07;100.00
46267;BME280;31998;48.798;15.066;2023-01-30T01:30:03;95965.78;;;-11.96;100.00
46267;BME280;31998;48.798;15.066;2023-01-30T01:32:29;95959.16;;;-12.08;100.00
46267;BME280;31998;48.798;15.066;2023-01-30T01:34:55;95949.34;;;-12.14;100.00
46267;BME280;31998;48.798;15.066;2023-01-30T01:37:20;95941.78;;;-12.25;100.00
46267;BME280;31998;48.798;15.066;2023-01-30T01:39:45;95938.16;;;-12.52;100.00
46267;BME280;31998;48.798;15.066;2023-01-30T01:42:33;95947.19;;;-12.56;100.00
46267;BME280;31998;48.798;15.066;2023-01-30T01:50:17;95932.06;;;-12.23;100.00
46267;BME280;31998;48.798;15.066;2023-01-30T01:52:43;95918.19;;;-12.32;100.00
46267;BME280;31998;48.798;15.066;2023-01-30T01:55:10;95918.78;;;-12.20;100.00
46267;BME280;31998;48.798;15.066;2023-01-30T01:57:43;95913.59;;;-12.20;100.00
46267;BME280;31998;48.798;15.066;2023-01-30T02:00:13;95902.97;;;-12.45;100.00
46267;BME280;31998;48.798;15.066;2023-01-30T02:02:48;95898.91;;;-12.57;100.00
46267;BME280;31998;48.798;15.066;2023-01-30T02:05:16;95901.88;;;-12.52;100.00
46267;BME280;31998;48.798;15.066;2023-01-30T02:07:49;95893.66;;;-12.38;100.00
46267;BME280;31998;48.798;15.066;2023-01-30T02:10:25;95882.09;;;-12.53;100.00
46267;BME280;31998;48.798;15.066;2023-01-30T02:12:52;95893.16;;;-12.51;100.00
46267;BME280;31998;48.798;15.066;2023-01-30T02:15:18;95878.94;;;-12.47;100.00
46267;BME280;31998;48.798;15.066;2023-01-30T02:17:44;95885.47;;;-12.43;100.00
46267;BME280;31998;48.798;15.066;2023-01-30T02:39:07;95882.22;;;-12.45;100.00
46267;BME280;31998;48.798;15.066;2023-01-30T02:44:34;95866.19;;;-12.58;100.00
46267;BME280;31998;48.798;15.066;2023-01-30T02:47:12;95867.31;;;-12.70;100.00
46267;BME280;31998;48.798;15.066;2023-01-30T02:49:44;95866.75;;;-12.64;100.00
46267;BME280;31998;48.798;15.066;2023-01-30T02:52:12;95873.75;;;-12.47;100.00
46267;BME280;31998;48.798;15.066;2023-01-30T02:54:38;95860.69;;;-12.55;100.00
46267;BME280;31998;48.798;15.066;2023-01-30T02:57:17;95873.81;;;-12.56;100.00
46267;BME280;31998;48.798;15.066;2023-01-30T02:59:44;95877.31;;;-12.48;100.00
46267;BME280;31998;48.798;15.066;2023-01-30T03:15:41;95847.34;;;-12.05;100.00
46267;BME280;31998;48.798;15.066;2023-01-30T03:18:08;95851.59;;;-12.14;100.00
46267;BME280;31998;48.798;15.066;2023-01-30T03:20:38;95850.16;;;-12.26;100.00
46267;BME280;31998;48.798;15.066;2023-01-30T03:23:04;95841.56;;;-12.26;100.00
46267;BME280;31998;48.798;15.066;2023-01-30T03:25:30;95855.97;;;-12.32;100.00
46267;BME280;31998;48.798;15.066;2023-01-30T03:27:56;95850.91;;;-12.34;100.00
46267;BME280;31998;48.798;15.066;2023-01-30T03:30:24;95848.13;;;-12.22;100.00
46267;BME280;31998;48.798;15.066;2023-01-30T03:32:49;95844.63;;;-12.13;100.00
46267;BME280;31998;48.798;15.066;2023-01-30T03:35:15;95845.41;;;-12.03;100.00
46267;BME280;31998;48.798;15.066;2023-01-30T03:37:42;95836.00;;;-12.04;100.00
46267;BME280;31998;48.798;15.066;2023-01-30T03:40:09;95833.09;;;-12.01;100.00
46267;BME280;31998;48.798;15.066;2023-01-30T03:42:35;95838.63;;;-12.14;100.00
46267;BME280;31998;48.798;15.066;2023-01-30T03:45:00;95822.19;;;-12.22;100.00
46267;BME280;31998;48.798;15.066;2023-01-30T03:47:26;95836.19;;;-12.15;100.00
46267;BME280;31998;48.798;15.066;2023-01-30T03:49:51;95834.97;;;-12.11;100.00
46267;BME280;31998;48.798;15.066;2023-01-30T03:52:17;95821.53;;;-12.07;100.00
46267;BME280;31998;48.798;15.066;2023-01-30T03:54:42;95818.88;;;-11.97;100.00
46267;BME280;31998;48.798;15.066;2023-01-30T03:57:07;95816.50;;;-11.90;100.00
46267;BME280;31998;48.798;15.066;2023-01-30T03:59:33;95808.13;;;-11.84;100.00
46267;BME280;31998;48.798;15.066;2023-01-30T04:01:58;95794.69;;;-11.80;100.00
46267;BME280;31998;48.798;15.066;2023-01-30T04:04:23;95802.81;;;-11.74;100.00
46267;BME280;31998;48.798;15.066;2023-01-30T04:06:49;95802.22;;;-11.68;100.00
46267;BME280;31998;48.798;15.066;2023-01-30T04:09:14;95789.94;;;-11.66;100.00
46267;BME280;31998;48.798;15.066;2023-01-30T04:11:40;95791.00;;;-11.51;100.00
46267;BME280;31998;48.798;15.066;2023-01-30T04:14:05;95775.19;;;-11.40;100.00
46267;BME280;31998;48.798;15.066;2023-01-30T04:16:30;95785.88;;;-11.17;100.00
46267;BME280;31998;48.798;15.066;2023-01-30T04:18:56;95785.78;;;-11.07;100.00
46267;BME280;31998;48.798;15.066;2023-01-30T04:21:21;95775.78;;;-10.94;100.00
46267;BME280;31998;48.798;15.066;2023-01-30T04:23:46;95762.16;;;-10.88;100.00
46267;BME280;31998;48.798;15.066;2023-01-30T04:26:12;95764.53;;;-10.69;100.00
46267;BME280;31998;48.798;15.066;2023-01-30T04:28:38;95744.41;;;-10.50;100.00
46267;BME280;31998;48.798;15.066;2023-01-30T04:31:04;95742.22;;;-9.96;100.00
46267;BME280;31998;48.798;15.066;2023-01-30T04:33:30;95739.59;;;-9.47;100.00
46267;BME280;31998;48.798;15.066;2023-01-30T04:36:00;95731.56;;;-9.05;100.00
46267;BME280;31998;48.798;15.066;2023-01-30T04:38:27;95734.63;;;-8.62;100.00
46267;BME280;31998;48.798;15.066;2023-01-30T04:40:54;95730.81;;;-7.98;100.00
46267;BME280;31998;48.798;15.066;2023-01-30T04:43:22;95732.25;;;-7.49;100.00
46267;BME280;31998;48.798;15.066;2023-01-30T04:45:49;95726.44;;;-7.22;100.00
46267;BME280;31998;48.798;15.066;2023-01-30T04:48:15;95731.88;;;-6.94;100.00
46267;BME280;31998;48.798;15.066;2023-01-30T04:50:42;95732.41;;;-6.69;100.00
46267;BME280;31998;48.798;15.066;2023-01-30T04:53:09;95733.28;;;-6.47;100.00
46267;BME280;31998;48.798;15.066;2023-01-30T04:55:34;95728.22;;;-6.34;100.00
46267;BME280;31998;48.798;15.066;2023-01-30T04:58:00;95724.22;;;-6.30;100.00
46267;BME280;31998;48.798;15.066;2023-01-30T05:00:25;95719.66;;;-6.06;100.00
46267;BME280;31998;48.798;15.066;2023-01-30T05:02:51;95725.41;;;-5.96;100.00
46267;BME280;31998;48.798;15.066;2023-01-30T05:05:17;95716.81;;;-5.83;100.00
46267;BME280;31998;48.798;15.066;2023-01-30T05:07:43;95722.28;;;-5.35;100.00
46267;BME280;31998;48.798;15.066;2023-01-30T05:10:09;95751.38;;;-5.02;100.00
46267;BME280;31998;48.798;15.066;2023-01-30T05:12:34;95748.28;;;-5.12;100.00
46267;BME280;31998;48.798;15.066;2023-01-30T05:15:00;95763.31;;;-5.00;100.00
46267;BME280;31998;48.798;15.066;2023-01-30T05:17:25;95747.66;;;-4.86;100.00
46267;BME280;31998;48.798;15.066;2023-01-30T05:19:51;95750.56;;;-4.75;100.00
46267;BME280;31998;48.798;15.066;2023-01-30T05:22:16;95730.25;;;-4.59;100.00
46267;BME280;31998;48.798;15.066;2023-01-30T05:24:42;95714.75;;;-4.48;100.00
46267;BME280;31998;48.798;15.066;2023-01-30T05:27:07;95688.28;;;-4.46;100.00
46267;BME280;31998;48.798;15.066;2023-01-30T05:29:32;95698.28;;;-4.22;100.00
46267;BME280;31998;48.798;15.066;2023-01-30T05:31:58;95683.16;;;-4.13;100.00
46267;BME280;31998;48.798;15.066;2023-01-30T05:34:23;95694.25;;;-4.11;100.00
46267;BME280;31998;48.798;15.066;2023-01-30T05:36:48;95689.25;;;-3.99;100.00
46267;BME280;31998;48.798;15.066;2023-01-30T05:39:14;95674.13;;;-3.91;100.00
46267;BME280;31998;48.798;15.066;2023-01-30T05:41:39;95666.59;;;-4.00;100.00
46267;BME280;31998;48.798;15.066;2023-01-30T05:44:05;95672.31;;;-3.90;100.00
46267;BME280;31998;48.798;15.066;2023-01-30T05:46:30;95642.16;;;-3.81;100.00
46267;BME280;31998;48.798;15.066;2023-01-30T05:48:55;95646.84;;;-3.70;100.00
46267;BME280;31998;48.798;15.066;2023-01-30T05:51:23;95626.41;;;-3.81;100.00
46267;BME280;31998;48.798;15.066;2023-01-30T05:53:49;95617.91;;;-3.70;100.00
46267;BME280;31998;48.798;15.066;2023-01-30T05:56:15;95619.31;;;-3.74;100.00
46267;BME280;31998;48.798;15.066;2023-01-30T05:58:41;95610.63;;;-3.68;100.00
46267;BME280;31998;48.798;15.066;2023-01-30T06:01:11;95590.41;;;-3.87;100.00
46267;BME280;31998;48.798;15.066;2023-01-30T06:03:37;95592.00;;;-3.79;100.00
46267;BME280;31998;48.798;15.066;2023-01-30T06:06:04;95593.25;;;-3.82;100.00
46267;BME280;31998;48.798;15.066;2023-01-30T06:08:30;95605.16;;;-3.86;100.00
46267;BME280;31998;48.798;15.066;2023-01-30T06:11:04;95601.31;;;-4.03;100.00
46267;BME280;31998;48.798;15.066;2023-01-30T06:13:31;95606.75;;;-3.98;100.00
46267;BME280;31998;48.798;15.066;2023-01-30T06:15:56;95597.25;;;-4.13;100.00
46267;BME280;31998;48.798;15.066;2023-01-30T06:18:22;95609.81;;;-4.01;100.00
46267;BME280;31998;48.798;15.066;2023-01-30T06:20:50;95601.72;;;-3.93;100.00
46267;BME280;31998;48.798;15.066;2023-01-30T06:23:17;95609.81;;;-3.88;100.00
46267;BME280;31998;48.798;15.066;2023-01-30T06:25:46;95620.72;;;-3.98;100.00
46267;BME280;31998;48.798;15.066;2023-01-30T06:28:13;95619.31;;;-4.00;100.00
46267;BME280;31998;48.798;15.066;2023-01-30T06:30:39;95640.94;;;-3.98;100.00
46267;BME280;31998;48.798;15.066;2023-01-30T06:33:05;95648.63;;;-4.03;100.00
46267;BME280;31998;48.798;15.066;2023-01-30T06:35:31;95642.75;;;-4.05;100.00
46267;BME280;31998;48.798;15.066;2023-01-30T06:37:56;95669.66;;;-4.03;100.00
46267;BME280;31998;48.798;15.066;2023-01-30T06:40:22;95666.00;;;-4.02;100.00
46267;BME280;31998;48.798;15.066;2023-01-30T06:42:48;95670.84;;;-3.99;100.00
46267;BME280;31998;48.798;15.066;2023-01-30T06:45:16;95672.44;;;-4.05;100.00
46267;BME280;31998;48.798;15.066;2023-01-30T06:47:50;95675.69;;;-4.10;100.00
46267;BME280;31998;48.798;15.066;2023-01-30T06:50:17;95675.28;;;-4.13;100.00
46267;BME280;31998;48.798;15.066;2023-01-30T06:52:45;95655.44;;;-4.22;100.00
46267;BME280;31998;48.798;15.066;2023-01-30T06:55:12;95679.16;;;-4.02;100.00
46267;BME280;31998;48.798;15.066;2023-01-30T06:57:38;95664.00;;;-3.87;100.00
46267;BME280;31998;48.798;15.066;2023-01-30T07:00:04;95652.69;;;-3.81;100.00
46267;BME280;31998;48.798;15.066;2023-01-30T07:02:30;95655.75;;;-3.71;100.00
46267;BME280;31998;48.798;15.066;2023-01-30T07:04:58;95636.72;;;-3.60;100.00
46267;BME280;31998;48.798;15.066;2023-01-30T07:07:24;95617.09;;;-3.64;100.00
46267;BME280;31998;48.798;15.066;2023-01-30T07:09:49;95628.63;;;-3.51;100.00
46267;BME280;31998;48.798;15.066;2023-01-30T07:12:15;95622.34;;;-3.37;100.00
46267;BME280;31998;48.798;15.066;2023-01-30T07:14:40;95627.38;;;-3.29;100.00
46267;BME280;31998;48.798;15.066;2023-01-30T07:17:06;95613.00;;;-3.20;100.00
46267;BME280;31998;48.798;15.066;2023-01-30T07:19:31;95611.78;;;-3.11;100.00
46267;BME280;31998;48.798;15.066;2023-01-30T07:21:57;95592.06;;;-2.95;100.00
46267;BME280;31998;48.798;15.066;2023-01-30T07:24:22;95582.91;;;-2.79;100.00
46267;BME280;31998;48.798;15.066;2023-01-30T07:26:47;95571.16;;;-2.77;100.00
46267;BME280;31998;48.798;15.066;2023-01-30T07:29:13;95573.09;;;-2.59;100.00
46267;BME280;31998;48.798;15.066;2023-01-30T07:31:38;95564.16;;;-2.58;100.00
46267;BME280;31998;48.798;15.066;2023-01-30T07:34:04;95568.59;;;-2.52;100.00
46267;BME280;31998;48.798;15.066;2023-01-30T07:36:29;95568.53;;;-2.38;100.00
46267;BME280;31998;48.798;15.066;2023-01-30T07:38:58;95567.25;;;-2.29;100.00
46267;BME280;31998;48.798;15.066;2023-01-30T07:41:23;95569.69;;;-2.28;100.00
46267;BME280;31998;48.798;15.066;2023-01-30T07:43:49;95569.22;;;-2.18;100.00
46267;BME280;31998;48.798;15.066;2023-01-30T07:46:14;95570.56;;;-2.09;100.00
46267;BME280;31998;48.798;15.066;2023-01-30T07:48:40;95566.31;;;-2.10;100.00
46267;BME280;31998;48.798;15.066;2023-01-30T07:51:05;95560.56;;;-2.00;100.00
46267;BME280;31998;48.798;15.066;2023-01-30T07:53:31;95566.56;;;-1.86;100.00
46267;BME280;31998;48.798;15.066;2023-01-30T07:55:56;95563.06;;;-1.80;100.00
46267;BME280;31998;48.798;15.066;2023-01-30T07:58:21;95540.88;;;-1.73;100.00
46267;BME280;31998;48.798;15.066;2023-01-30T08:00:47;95567.47;;;-1.74;100.00
46267;BME280;31998;48.798;15.066;2023-01-30T08:03:16;95558.31;;;-1.72;100.00
46267;BME280;31998;48.798;15.066;2023-01-30T08:05:42;95563.69;;;-1.60;100.00
46267;BME280;31998;48.798;15.066;2023-01-30T08:08:09;95567.66;;;-1.51;100.00
46267;BME280;31998;48.798;15.066;2023-01-30T08:10:34;95564.22;;;-1.51;100.00
46267;BME280;31998;48.798;15.066;2023-01-30T08:12:59;95551.19;;;-1.46;100.00
46267;BME280;31998;48.798;15.066;2023-01-30T08:15:25;95542.91;;;-1.50;100.00
46267;BME280;31998;48.798;15.066;2023-01-30T08:17:55;95551.50;;;-1.36;100.00
46267;BME280;31998;48.798;15.066;2023-01-30T08:20:20;95531.63;;;-1.39;100.00
46267;BME280;31998;48.798;15.066;2023-01-30T08:22:46;95497.72;;;-1.60;100.00
46267;BME280;31998;48.798;15.066;2023-01-30T08:25:11;95531.47;;;-1.25;100.00
46267;BME280;31998;48.798;15.066;2023-01-30T08:27:37;95516.66;;;-1.26;100.00
46267;BME280;31998;48.798;15.066;2023-01-30T08:30:02;95513.88;;;-1.13;100.00
46267;BME280;31998;48.798;15.066;2023-01-30T08:32:28;95501.56;;;-1.01;100.00
46267;BME280;31998;48.798;15.066;2023-01-30T08:34:53;95480.34;;;-0.94;100.00
46267;BME280;31998;48.798;15.066;2023-01-30T08:37:18;95484.28;;;-0.55;100.00
46267;BME280;31998;48.798;15.066;2023-01-30T08:39:44;95489.19;;;-0.29;100.00
46267;BME280;31998;48.798;15.066;2023-01-30T08:42:09;95481.00;;;-0.27;100.00
46267;BME280;31998;48.798;15.066;2023-01-30T08:44:35;95489.78;;;-0.15;100.00
46267;BME280;31998;48.798;15.066;2023-01-30T08:47:00;95484.72;;;-0.16;100.00
46267;BME280;31998;48.798;15.066;2023-01-30T08:49:25;95474.16;;;-0.16;100.00
46267;BME280;31998;48.798;15.066;2023-01-30T08:51:51;95488.84;;;-0.20;100.00
46267;BME280;31998;48.798;15.066;2023-01-30T08:54:16;95489.44;;;-0.18;100.00
46267;BME280;31998;48.798;15.066;2023-01-30T08:56:42;95498.19;;;-0.18;100.00
46267;BME280;31998;48.798;15.066;2023-01-30T08:59:07;95495.44;;;-0.11;100.00
46267;BME280;31998;48.798;15.066;2023-01-30T09:01:32;95497.59;;;-0.20;100.00
46267;BME280;31998;48.798;15.066;2023-01-30T09:03:58;95489.78;;;-0.15;100.00
46267;BME280;31998;48.798;15.066;2023-01-30T09:06:23;95497.84;;;-0.10;100.00
46267;BME280;31998;48.798;15.066;2023-01-30T09:08:49;95505.25;;;0.00;100.00
46267;BME280;31998;48.798;15.066;2023-01-30T09:11:14;95489.47;;;0.05;100.00
46267;BME280;31998;48.798;15.066;2023-01-30T09:13:40;95490.06;;;0.07;100.00
46267;BME280;31998;48.798;15.066;2023-01-30T09:16:08;95483.94;;;0.18;100.00
46267;BME280;31998;48.798;15.066;2023-01-30T09:18:37;95490.28;;;0.29;100.00
46267;BME280;31998;48.798;15.066;2023-01-30T09:21:04;95498.00;;;0.31;100.00
46267;BME280;31998;48.798;15.066;2023-01-30T09:23:30;95489.00;;;0.32;100.00
46267;BME280;31998;48.798;15.066;2023-01-30T09:25:55;95463.47;;;0.25;100.00
46267;BME280;31998;48.798;15.066;2023-01-30T09:28:21;95474.19;;;0.31;100.00
46267;BME280;31998;48.798;15.066;2023-01-30T09:30:46;95474.31;;;0.36;100.00
46267;BME280;31998;48.798;15.066;2023-01-30T09:33:12;95483.84;;;0.60;100.00
46267;BME280;31998;48.798;15.066;2023-01-30T09:35:40;95466.69;;;0.51;100.00
46267;BME280;31998;48.798;15.066;2023-01-30T09:38:06;95456.88;;;1.15;100.00
46267;BME280;31998;48.798;15.066;2023-01-30T09:40:31;95449.00;;;1.20;100.00
46267;BME280;31998;48.798;15.066;2023-01-30T09:43:07;95440.81;;;1.22;100.00
46267;BME280;31998;48.798;15.066;2023-01-30T09:46:20;95437.91;;;1.06;100.00
46267;BME280;31998;48.798;15.066;2023-01-30T09:49:01;95436.88;;;0.96;100.00
46267;BME280;31998;48.798;15.066;2023-01-30T09:51:54;95454.78;;;1.17;100.00
46267;BME280;31998;48.798;15.066;2023-01-30T09:54:32;95428.22;;;1.57;100.00
46267;BME280;31998;48.798;15.066;2023-01-30T09:57:15;95427.75;;;1.77;100.00
46267;BME280;31998;48.798;15.066;2023-01-30T10:02:28;95402.91;;;1.21;100.00
46267;BME280;31998;48.798;15.066;2023-01-30T10:04:55;95408.69;;;1.18;100.00
46267;BME280;31998;48.798;15.066;2023-01-30T10:10:00;95372.22;;;1.08;100.00
46267;BME280;31998;48.798;15.066;2023-01-30T10:15:34;95359.16;;;1.69;100.00
46267;BME280;31998;48.798;15.066;2023-01-30T10:25:53;95347.31;;;1.94;100.00
46267;BME280;31998;48.798;15.066;2023-01-30T10:30:48;95341.47;;;1.92;100.00
46267;BME280;31998;48.798;15.066;2023-01-30T10:33:29;95327.41;;;1.74;100.00
46267;BME280;31998;48.798;15.066;2023-01-30T10:36:17;95340.28;;;1.66;100.00
46267;BME280;31998;48.798;15.066;2023-01-30T10:38:50;95313.13;;;1.42;100.00
46267;BME280;31998;48.798;15.066;2023-01-30T10:44:09;95328.53;;;1.28;100.00
46267;BME280;31998;48.798;15.066;2023-01-30T11:00:27;95351.44;;;0.89;100.00
46267;BME280;31998;48.798;15.066;2023-01-30T11:05:49;95350.31;;;0.85;100.00
46267;BME280;31998;48.798;15.066;2023-01-30T11:08:21;95337.66;;;0.87;100.00
46267;BME280;31998;48.798;15.066;2023-01-30T11:10:48;95329.69;;;0.87;100.00
46267;BME280;31998;48.798;15.066;2023-01-30T11:13:29;95336.75;;;0.81;100.00
46267;BME280;31998;48.798;15.066;2023-01-30T11:15:58;95339.81;;;0.90;100.00
46267;BME280;31998;48.798;15.066;2023-01-30T11:18:24;95342.00;;;0.93;100.00
46267;BME280;31998;48.798;15.066;2023-01-30T11:21:07;95332.25;;;0.81;100.00
46267;BME280;31998;48.798;15.066;2023-01-30T11:23:40;95328.81;;;0.81;100.00
46267;BME280;31998;48.798;15.066;2023-01-30T11:26:06;95340.19;;;0.81;100.00
46267;BME280;31998;48.798;15.066;2023-01-30T11:28:40;95340.84;;;0.89;100.00
46267;BME280;31998;48.798;15.066;2023-01-30T11:31:16;95338.44;;;0.87;100.00
46267;BME280;31998;48.798;15.066;2023-01-30T11:33:57;95345.50;;;0.81;100.00
46267;BME280;31998;48.798;15.066;2023-01-30T11:36:26;95330.88;;;0.79;100.00
46267;BME280;31998;48.798;15.066;2023-01-30T11:39:17;95331.59;;;0.74;100.00
46267;BME280;31998;48.798;15.066;2023-01-30T11:44:33;95323.56;;;0.69;100.00
46267;BME280;31998;48.798;15.066;2023-01-30T11:47:12;95329.50;;;0.76;100.00
46267;BME280;31998;48.798;15.066;2023-01-30T11:49:43;95340.19;;;0.81;100.00
46267;BME280;31998;48.798;15.066;2023-01-30T11:52:11;95331.84;;;0.73;100.00
46267;BME280;31998;48.798;15.066;2023-01-30T11:54:39;95324.50;;;0.63;100.00
46267;BME280;31998;48.798;15.066;2023-01-30T11:57:10;95321.53;;;0.60;100.00
46267;BME280;31998;48.798;15.066;2023-01-30T11:59:53;95315.66;;;0.58;100.00
46267;BME280;31998;48.798;15.066;2023-01-30T12:02:23;95331.47;;;0.52;100.00
46267;BME280;31998;48.798;15.066;2023-01-30T12:04:51;95323.16;;;0.49;100.00
46267;BME280;31998;48.798;15.066;2023-01-30T12:07:27;95322.59;;;0.47;100.00
46267;BME280;31998;48.798;15.066;2023-01-30T12:09:54;95320.75;;;0.47;100.00
46267;BME280;31998;48.798;15.066;2023-01-30T12:12:27;95311.28;;;0.51;100.00
46267;BME280;31998;48.798;15.066;2023-01-30T12:15:02;95304.75;;;0.54;100.00
46267;BME280;31998;48.798;15.066;2023-01-30T12:23:14;95306.72;;;0.47;100.00
46267;BME280;31998;48.798;15.066;2023-01-30T12:25:57;95309.69;;;0.50;100.00
46267;BME280;31998;48.798;15.066;2023-01-30T12:31:26;95299.91;;;0.51;100.00
46267;BME280;31998;48.798;15.066;2023-01-30T12:33:53;95309.44;;;0.52;100.00
46267;BME280;31998;48.798;15.066;2023-01-30T12:36:54;95315.56;;;0.52;100.00
46267;BME280;31998;48.798;15.066;2023-01-30T12:42:17;95312.03;;;0.47;100.00
46267;BME280;31998;48.798;15.066;2023-01-30T12:48:01;95315.13;;;0.44;100.00
46267;BME280;31998;48.798;15.066;2023-01-30T12:50:58;95306.13;;;0.45;100.00
46267;BME280;31998;48.798;15.066;2023-01-30T12:53:50;95300.19;;;0.38;100.00
46267;BME280;31998;48.798;15.066;2023-01-30T13:18:22;95259.34;;;0.62;100.00
46267;BME280;31998;48.798;15.066;2023-01-30T13:26:16;95229.28;;;0.85;100.00
46267;BME280;31998;48.798;15.066;2023-01-30T13:28:48;95225.09;;;0.89;100.00
46267;BME280;31998;48.798;15.066;2023-01-30T13:31:17;95221.09;;;0.87;100.00
46267;BME280;31998;48.798;15.066;2023-01-30T13:33:47;95208.31;;;0.84;100.00
46267;BME280;31998;48.798;15.066;2023-01-30T13:36:20;95216.22;;;0.78;100.00
46267;BME280;31998;48.798;15.066;2023-01-30T13:39:00;95197.81;;;0.72;100.00
46267;BME280;31998;48.798;15.066;2023-01-30T13:41:37;95185.69;;;0.76;100.00
46267;BME280;31998;48.798;15.066;2023-01-30T13:44:25;95181.69;;;0.73;100.00
46267;BME280;31998;48.798;15.066;2023-01-30T13:46:53;95180.25;;;0.82;100.00
46267;BME280;31998;48.798;15.066;2023-01-30T13:49:38;95192.69;;;0.99;100.00
46267;BME280;31998;48.798;15.066;2023-01-30T13:52:16;95198.94;;;0.93;100.00
46267;BME280;31998;48.798;15.066;2023-01-30T13:58:03;95203.09;;;1.22;100.00
46267;BME280;31998;48.798;15.066;2023-01-30T14:00:34;95214.75;;;1.21;100.00
46267;BME280;31998;48.798;15.066;2023-01-30T14:08:49;95239.31;;;1.72;100.00
46267;BME280;31998;48.798;15.066;2023-01-30T14:11:45;95226.88;;;1.95;100.00
46267;BME280;31998;48.798;15.066;2023-01-30T14:14:19;95227.72;;;2.00;100.00
46267;BME280;31998;48.798;15.066;2023-01-30T14:16:52;95230.91;;;1.97;100.00
46267;BME280;31998;48.798;15.066;2023-01-30T14:27:49;95246.22;;;1.34;100.00
46267;BME280;31998;48.798;15.066;2023-01-30T14:30:48;95265.66;;;1.23;100.00
46267;BME280;31998;48.798;15.066;2023-01-30T14:35:47;95267.09;;;1.14;100.00
46267;BME280;31998;48.798;15.066;2023-01-30T14:38:17;95265.50;;;1.13;100.00
46267;BME280;31998;48.798;15.066;2023-01-30T14:48:44;95274.50;;;1.12;100.00
46267;BME280;31998;48.798;15.066;2023-01-30T14:53:50;95287.91;;;1.05;100.00
46267;BME280;31998;48.798;15.066;2023-01-30T14:56:19;95283.41;;;1.06;100.00
46267;BME280;31998;48.798;15.066;2023-01-30T14:59:01;95285.81;;;1.07;100.00
46267;BME280;31998;48.798;15.066;2023-01-30T15:02:07;95292.56;;;1.15;100.00
46267;BME280;31998;48.798;15.066;2023-01-30T15:10:01;95297.56;;;1.12;100.00
46267;BME280;31998;48.798;15.066;2023-01-30T15:26:51;95319.84;;;0.99;100.00
46267;BME280;31998;48.798;15.066;2023-01-30T15:29:47;95325.16;;;0.99;100.00
46267;BME280;31998;48.798;15.066;2023-01-30T15:32:21;95321.91;;;0.97;100.00
46267;BME280;31998;48.798;15.066;2023-01-30T15:34:59;95330.44;;;0.99;100.00
46267;BME280;31998;48.798;15.066;2023-01-30T15:37:33;95329.41;;;1.00;100.00
46267;BME280;31998;48.798;15.066;2023-01-30T15:40:10;95325.72;;;1.01;100.00
46267;BME280;31998;48.798;15.066;2023-01-30T15:42:36;95329.41;;;1.00;100.00
46267;BME280;31998;48.798;15.066;2023-01-30T15:50:09;95344.75;;;0.98;100.00